Time;durP1;ratioP1;P1;durP2;ratioP2;P2;SDS_P1;SDS_P2;PMS_P1;PMS_P2;Temp;Humidity;BMP_temperature;BMP_pressure;BME280_temperature;BME280_humidity;BME280_pressure;Samples;Min_cycle;Max_cycle;Signal;HPM_P1;HPM_P2
2021/11/03 00:00:51;;;;;;;;;7.75;5.25;;;;;23.66;39.63;99725.41;4958871;28;45579;-63
2021/11/03 00:03:16;;;;;;;;;5.00;4.00;;;;;23.69;40.08;99719.66;4961075;28;45345;-63
2021/11/03 00:05:47;;;;;;;;;5.75;5.75;;;;;23.66;40.10;99719.28;4960320;28;45354;-64
2021/11/03 00:08:20;;;;;;;;;4.50;4.50;;;;;23.68;39.86;99727.84;4957782;28;45410;-64
2021/11/03 00:10:48;;;;;;;;;6.50;5.25;;;;;23.66;39.56;99733.38;4971611;28;45436;-63
2021/11/03 00:13:15;;;;;;;;;7.00;5.00;;;;;23.65;39.73;99721.13;4961461;28;45186;-64
2021/11/03 00:15:42;;;;;;;;;6.75;6.00;;;;;23.60;39.22;99724.44;4963790;28;46755;-64
2021/11/03 00:18:07;;;;;;;;;6.00;6.00;;;;;23.62;39.25;99734.84;4970013;28;45465;-64
2021/11/03 00:20:33;;;;;;;;;8.00;5.50;;;;;23.61;39.73;99723.41;4958827;28;45359;-63
2021/11/03 00:22:58;;;;;;;;;3.00;3.00;;;;;23.62;39.14;99733.00;4974906;28;45352;-63
2021/11/03 00:25:25;;;;;;;;;8.00;5.25;;;;;23.59;39.48;99716.69;4970132;28;45430;-64
2021/11/03 00:27:50;;;;;;;;;5.75;5.75;;;;;23.57;38.87;99724.06;4973788;28;45434;-64
2021/11/03 00:30:15;;;;;;;;;5.75;5.25;;;;;23.58;39.42;99720.38;4973841;28;45474;-63
2021/11/03 00:32:41;;;;;;;;;5.25;5.25;;;;;23.54;38.65;99712.03;4973950;28;45457;-63
2021/11/03 00:35:06;;;;;;;;;5.50;3.00;;;;;23.59;38.84;99719.34;4973584;28;46562;-64
2021/11/03 00:37:32;;;;;;;;;6.00;4.25;;;;;23.57;39.11;99716.09;4975576;28;45471;-64
2021/11/03 00:39:57;;;;;;;;;5.00;5.00;;;;;23.57;38.67;99713.44;4973374;28;45474;-63
2021/11/03 00:42:23;;;;;;;;;6.00;5.50;;;;;23.57;39.30;99716.91;4973508;28;45392;-64
2021/11/03 00:44:48;;;;;;;;;6.75;6.75;;;;;23.58;39.27;99717.72;4973557;28;45346;-64
2021/11/03 00:47:13;;;;;;;;;8.50;6.50;;;;;23.54;39.19;99708.56;4973573;28;45821;-63
2021/11/03 00:49:39;;;;;;;;;5.50;5.25;;;;;23.56;39.33;99712.63;4974555;28;45404;-63
2021/11/03 00:52:04;;;;;;;;;4.25;4.25;;;;;23.56;38.79;99711.81;4973862;28;45764;-64
2021/11/03 00:54:30;;;;;;;;;3.25;3.25;;;;;23.45;39.07;99700.03;4973079;28;46668;-63
2021/11/03 00:56:55;;;;;;;;;4.50;4.50;;;;;23.50;39.04;99709.00;4971944;28;45477;-64
2021/11/03 00:59:21;;;;;;;;;4.25;4.25;;;;;23.52;39.19;99711.44;4973565;28;45786;-63
2021/11/03 01:01:46;;;;;;;;;7.00;5.00;;;;;23.51;38.91;99710.63;4975579;28;45504;-64
2021/11/03 01:04:13;;;;;;;;;5.00;5.00;;;;;23.51;39.17;99707.97;4973131;28;45463;-64
2021/11/03 01:06:38;;;;;;;;;5.50;5.00;;;;;23.51;38.59;99707.16;4971358;28;45433;-63
2021/11/03 01:09:05;;;;;;;;;4.75;4.75;;;;;23.53;38.79;99705.09;4973418;28;45568;-63
2021/11/03 01:11:30;;;;;;;;;8.75;6.00;;;;;23.49;38.92;99702.09;4971820;28;45565;-63
2021/11/03 01:13:55;;;;;;;;;4.75;4.75;;;;;23.49;38.69;99704.72;4974336;28;46443;-63
2021/11/03 01:16:21;;;;;;;;;7.25;5.00;;;;;23.48;39.14;99711.03;4974157;28;45319;-64
2021/11/03 01:18:46;;;;;;;;;5.25;4.75;;;;;23.50;39.04;99719.63;4973118;28;45481;-64
2021/11/03 01:21:12;;;;;;;;;6.25;4.50;;;;;23.48;39.06;99712.88;4972565;28;45532;-64
2021/11/03 01:23:37;;;;;;;;;6.75;6.25;;;;;23.48;38.77;99715.53;4971867;28;48196;-63
2021/11/03 01:26:03;;;;;;;;;7.50;4.00;;;;;23.47;39.21;99714.72;4973278;28;45671;-63
2021/11/03 01:28:28;;;;;;;;;6.00;6.00;;;;;23.49;39.19;99725.97;4975015;28;45446;-65
2021/11/03 01:30:55;;;;;;;;;6.00;6.00;;;;;23.47;39.13;99724.53;4972914;28;45618;-65
2021/11/03 01:33:21;;;;;;;;;5.00;4.00;;;;;23.40;39.19;99716.59;4972697;28;47443;-64
2021/11/03 01:35:47;;;;;;;;;6.75;6.75;;;;;23.47;38.56;99730.63;4970801;28;45534;-65
2021/11/03 01:38:13;;;;;;;;;5.00;4.50;;;;;23.47;39.02;99724.53;4972987;28;45258;-65
2021/11/03 01:40:41;;;;;;;;;5.25;5.25;;;;;23.47;38.80;99732.50;4975053;28;45352;-64
2021/11/03 01:43:09;;;;;;;;;6.00;6.00;;;;;23.46;39.02;99725.56;4972787;28;46298;-64
2021/11/03 01:45:35;;;;;;;;;4.50;3.25;;;;;23.45;38.96;99724.72;4971509;28;45764;-64
2021/11/03 01:48:08;;;;;;;;;6.00;6.00;;;;;23.45;38.54;99735.34;4972982;28;45369;-64
2021/11/03 01:50:44;;;;;;;;;6.00;6.00;;;;;23.45;38.77;99722.06;4972491;28;45408;-64
2021/11/03 01:53:23;;;;;;;;;5.50;5.00;;;;;23.46;38.73;99723.72;4972481;28;45505;-65
2021/11/03 01:55:54;;;;;;;;;5.50;5.00;;;;;23.45;38.74;99724.72;4970724;28;45564;-64
2021/11/03 01:58:24;;;;;;;;;4.50;4.50;;;;;23.43;39.00;99721.50;4972148;28;45483;-64
2021/11/03 02:00:54;;;;;;;;;4.25;4.25;;;;;23.45;38.83;99724.72;4971917;28;45457;-64
2021/11/03 02:03:24;;;;;;;;;4.25;3.75;;;;;23.45;38.56;99718.59;4972465;28;46224;-64
2021/11/03 02:06:13;;;;;;;;;4.00;4.00;;;;;23.42;38.45;99714.53;4972096;28;45430;-65
2021/11/03 02:08:42;;;;;;;;;6.00;5.25;;;;;23.47;38.09;99732.50;4959694;28;47455;-65
2021/11/03 02:11:08;;;;;;;;;4.00;4.00;;;;;23.45;38.85;99731.88;4971447;28;45334;-65
2021/11/03 02:13:36;;;;;;;;;6.25;6.25;;;;;23.46;38.67;99731.69;4974383;28;47074;-64
2021/11/03 02:16:03;;;;;;;;;7.50;6.00;;;;;23.46;38.69;99736.16;4970721;28;45296;-65
2021/11/03 02:18:31;;;;;;;;;6.00;4.75;;;;;23.45;38.54;99739.84;4972329;28;45435;-65
2021/11/03 02:20:57;;;;;;;;;5.00;4.00;;;;;23.46;38.40;99739.66;4971908;28;45491;-65
2021/11/03 02:23:22;;;;;;;;;6.00;4.25;;;;;23.45;38.38;99751.28;4970900;28;46257;-65
2021/11/03 02:25:59;;;;;;;;;7.50;5.00;;;;;23.42;38.80;99751.72;4973799;28;45461;-64
2021/11/03 02:28:25;;;;;;;;;6.75;6.25;;;;;23.44;38.24;99751.50;4973982;28;45353;-65
2021/11/03 02:30:50;;;;;;;;;6.50;4.50;;;;;23.44;38.52;99752.31;4972292;28;45544;-65
2021/11/03 02:33:20;;;;;;;;;5.50;4.75;;;;;23.44;38.79;99760.28;4971990;28;46372;-65
2021/11/03 02:35:58;;;;;;;;;3.75;3.75;;;;;23.43;38.87;99761.31;4971831;28;45482;-64
2021/11/03 02:38:40;;;;;;;;;4.50;4.25;;;;;23.40;38.80;99754.59;4956519;28;45364;-65
2021/11/03 02:41:11;;;;;;;;;6.25;5.00;;;;;23.40;38.73;99759.91;4972185;28;45476;-65
2021/11/03 02:43:51;;;;;;;;;6.75;5.75;;;;;23.38;38.47;99755.84;4974056;28;46322;-64
2021/11/03 02:46:18;;;;;;;;;4.50;4.50;;;;;23.41;38.37;99763.38;4971267;28;45296;-65
2021/11/03 02:48:45;;;;;;;;;6.00;4.25;;;;;23.38;38.64;99756.66;4971715;28;49640;-65
2021/11/03 02:51:22;;;;;;;;;8.25;5.75;;;;;23.40;38.13;99761.72;4972043;28;45353;-65
2021/11/03 02:54:01;;;;;;;;;6.00;5.00;;;;;23.40;38.89;99769.69;4970282;28;46578;-65
2021/11/03 02:56:32;;;;;;;;;4.00;4.00;;;;;23.39;38.64;99768.88;4957732;28;45496;-65
2021/11/03 02:58:57;;;;;;;;;5.75;5.00;;;;;23.37;38.58;99765.63;4972892;28;45314;-64
2021/11/03 03:01:30;;;;;;;;;8.25;5.00;;;;;23.40;38.19;99764.38;4973124;28;45407;-65
2021/11/03 03:03:56;;;;;;;;;7.25;5.00;;;;;23.39;38.40;99768.09;4970053;28;46376;-64
2021/11/03 03:06:27;;;;;;;;;4.50;4.50;;;;;23.35;38.06;99756.25;4971608;28;47136;-65
2021/11/03 03:08:55;;;;;;;;;5.25;5.25;;;;;23.40;38.52;99767.03;4970342;28;45476;-65
2021/11/03 03:11:23;;;;;;;;;2.50;2.50;;;;;23.40;38.23;99770.50;4971926;28;45281;-64
2021/11/03 03:13:49;;;;;;;;;5.50;5.00;;;;;23.41;38.07;99768.69;4973437;28;45463;-65
2021/11/03 03:16:16;;;;;;;;;4.50;4.00;;;;;23.40;38.58;99769.69;4972082;28;45430;-65
2021/11/03 03:18:42;;;;;;;;;4.25;4.25;;;;;23.39;38.54;99762.78;4971338;28;45366;-64
2021/11/03 03:21:07;;;;;;;;;5.00;4.00;;;;;23.39;37.86;99762.78;4971526;28;45292;-65
2021/11/03 03:23:33;;;;;;;;;5.25;5.00;;;;;23.40;38.21;99765.22;4971528;28;46932;-65
2021/11/03 03:25:59;;;;;;;;;6.00;5.00;;;;;23.40;38.33;99770.50;4972468;28;45384;-65
2021/11/03 03:28:25;;;;;;;;;6.00;5.00;;;;;23.39;37.86;99768.88;4973276;28;45196;-64
2021/11/03 03:30:50;;;;;;;;;5.75;4.00;;;;;23.41;38.25;99774.00;4971477;28;45549;-65
2021/11/03 03:33:15;;;;;;;;;3.75;3.75;;;;;23.39;38.02;99773.41;4969521;28;45426;-65
2021/11/03 03:35:41;;;;;;;;;7.00;4.00;;;;;23.40;38.20;99775.00;4969503;28;45321;-65
2021/11/03 03:38:06;;;;;;;;;6.50;5.00;;;;;23.35;38.29;99761.56;4970958;28;45201;-65
2021/11/03 03:40:31;;;;;;;;;4.25;4.00;;;;;23.40;38.19;99770.50;4973560;28;45225;-64
2021/11/03 03:42:57;;;;;;;;;5.00;5.00;;;;;23.38;38.30;99777.88;4969923;28;46337;-65
2021/11/03 03:45:22;;;;;;;;;3.25;3.25;;;;;23.25;38.46;99762.06;4971631;28;45337;-65
2021/11/03 03:47:47;;;;;;;;;4.25;4.25;;;;;23.37;38.42;99783.38;4971037;28;45459;-65
2021/11/03 03:50:13;;;;;;;;;4.00;4.00;;;;;23.32;38.21;99773.44;4971518;28;45268;-65
2021/11/03 03:52:39;;;;;;;;;5.75;4.50;;;;;23.34;37.73;99775.88;4973256;28;46285;-64
2021/11/03 03:55:07;;;;;;;;;4.00;4.00;;;;;23.40;38.32;99782.97;4970989;28;45292;-65
2021/11/03 03:57:33;;;;;;;;;4.50;4.25;;;;;23.38;38.27;99791.16;4971226;28;45497;-65
2021/11/03 03:59:58;;;;;;;;;3.00;3.00;;;;;23.37;38.17;99789.53;4970916;28;45332;-64
2021/11/03 04:02:23;;;;;;;;;4.00;3.00;;;;;23.36;38.18;99787.09;4970792;28;46578;-64
2021/11/03 04:04:49;;;;;;;;;6.50;5.00;;;;;23.36;37.70;99795.06;4972984;28;45384;-64
2021/11/03 04:07:14;;;;;;;;;4.50;4.50;;;;;23.36;38.15;99800.34;4971192;28;45359;-64
2021/11/03 04:09:39;;;;;;;;;5.00;4.75;;;;;23.36;38.29;99789.75;4971060;28;45335;-66
2021/11/03 04:12:05;;;;;;;;;4.00;4.00;;;;;23.37;38.39;99788.69;4969361;28;46468;-64
2021/11/03 04:14:30;;;;;;;;;3.75;3.75;;;;;23.35;38.44;99796.06;4970856;28;45394;-65
2021/11/03 04:16:56;;;;;;;;;6.50;4.00;;;;;23.37;38.05;99808.09;4971971;28;45354;-65
2021/11/03 04:19:21;;;;;;;;;4.00;4.00;;;;;23.37;38.42;99801.97;4971665;28;45402;-64
2021/11/03 04:21:46;;;;;;;;;5.00;4.00;;;;;23.33;37.98;99796.28;4970804;28;47194;-65
2021/11/03 04:24:12;;;;;;;;;6.50;4.00;;;;;23.36;38.46;99800.34;4970996;28;45525;-65
2021/11/03 04:26:42;;;;;;;;;4.75;3.75;;;;;23.37;38.35;99794.00;4970868;28;45283;-64
2021/11/03 04:29:08;;;;;;;;;3.75;3.75;;;;;23.35;38.22;99796.88;4970924;28;45288;-65
2021/11/03 04:31:33;;;;;;;;;3.75;3.75;;;;;23.32;38.36;99802.63;4972174;28;45417;-64
2021/11/03 04:33:58;;;;;;;;;5.75;4.00;;;;;23.31;37.76;99797.53;4970555;28;45453;-65
2021/11/03 04:36:24;;;;;;;;;3.50;3.50;;;;;23.35;37.61;99798.72;4970608;28;45475;-64
2021/11/03 04:38:53;;;;;;;;;5.00;4.00;;;;;23.32;37.62;99799.97;4970585;28;45601;-64
2021/11/03 04:41:19;;;;;;;;;4.75;4.75;;;;;23.37;38.39;99804.63;4954982;28;45450;-64
2021/11/03 04:43:46;;;;;;;;;5.00;4.00;;;;;23.36;37.92;99806.50;4968258;28;45576;-65
2021/11/03 04:46:14;;;;;;;;;6.50;5.00;;;;;23.37;38.18;99810.75;4970183;28;45481;-65
2021/11/03 04:48:41;;;;;;;;;1.00;1.00;;;;;23.37;37.80;99808.09;4970721;28;46287;-64
2021/11/03 04:51:06;;;;;;;;;3.75;3.75;;;;;23.36;38.04;99811.78;4971797;28;45521;-64
2021/11/03 04:53:32;;;;;;;;;8.00;4.00;;;;;23.38;38.16;99822.19;4973483;28;45418;-65
2021/11/03 04:55:59;;;;;;;;;4.50;4.50;;;;;23.37;38.07;99813.41;4974316;28;45396;-64
2021/11/03 04:58:25;;;;;;;;;5.00;5.00;;;;;23.38;38.05;99819.53;4974777;28;45644;-64
2021/11/03 05:00:51;;;;;;;;;5.25;3.50;;;;;23.38;37.77;99819.53;4972895;28;46171;-64
2021/11/03 05:03:16;;;;;;;;;6.25;4.25;;;;;23.36;37.76;99819.75;4973308;28;45439;-64
2021/11/03 05:05:42;;;;;;;;;3.75;3.75;;;;;23.24;37.70;99800.22;4973534;28;45485;-65
2021/11/03 05:08:10;;;;;;;;;4.50;4.50;;;;;23.38;37.98;99820.34;4973599;28;45418;-64
2021/11/03 05:10:36;;;;;;;;;4.00;4.00;;;;;23.37;38.20;99823.19;4975274;28;46090;-64
2021/11/03 05:13:01;;;;;;;;;5.25;4.50;;;;;23.37;37.78;99820.56;4973041;28;45227;-64
2021/11/03 05:15:27;;;;;;;;;4.75;4.50;;;;;23.37;38.15;99834.63;4972634;28;45580;-65
2021/11/03 05:17:52;;;;;;;;;4.75;4.75;;;;;23.34;37.90;99828.97;4973436;28;45545;-65
2021/11/03 05:20:19;;;;;;;;;6.00;5.00;;;;;23.36;38.09;99819.75;4973089;28;46244;-64
2021/11/03 05:22:47;;;;;;;;;3.50;2.75;;;;;23.37;37.68;99831.16;4971064;28;45557;-64
2021/11/03 05:25:18;;;;;;;;;4.00;3.25;;;;;23.36;37.51;99830.38;4973216;28;45387;-64
2021/11/03 05:27:44;;;;;;;;;8.25;4.50;;;;;23.36;37.87;99842.81;4972594;28;45625;-65
2021/11/03 05:30:10;;;;;;;;;4.25;3.00;;;;;23.35;37.62;99839.34;4971348;28;46165;-65
2021/11/03 05:32:35;;;;;;;;;3.25;3.25;;;;;23.35;37.40;99841.19;4973142;28;45407;-64
2021/11/03 05:35:01;;;;;;;;;4.00;4.00;;;;;23.32;37.86;99834.47;4973454;28;45413;-64
2021/11/03 05:37:27;;;;;;;;;4.00;4.00;;;;;23.34;37.77;99840.38;4974553;28;45434;-64
2021/11/03 05:39:53;;;;;;;;;3.25;3.00;;;;;23.33;37.53;99843.25;4971340;28;46419;-64
2021/11/03 05:42:19;;;;;;;;;4.00;4.00;;;;;23.32;37.65;99838.94;4972398;28;45354;-65
2021/11/03 05:44:44;;;;;;;;;3.75;3.50;;;;;23.33;37.49;99844.06;4973101;28;45325;-64
2021/11/03 05:47:19;;;;;;;;;3.75;3.75;;;;;23.32;37.51;99846.91;4972911;28;45430;-65
2021/11/03 05:49:44;;;;;;;;;7.00;4.50;;;;;23.29;37.65;99845.50;4974802;28;46404;-65
2021/11/03 05:52:11;;;;;;;;;6.00;5.00;;;;;23.32;37.61;99841.63;4972637;28;45568;-64
2021/11/03 05:54:36;;;;;;;;;4.50;4.50;;;;;23.32;37.75;99855.69;4972624;28;45441;-65
2021/11/03 05:57:02;;;;;;;;;4.75;3.50;;;;;23.31;37.76;99853.28;4972361;28;45299;-65
2021/11/03 05:59:28;;;;;;;;;6.00;4.00;;;;;23.29;37.62;99848.97;4971670;28;46467;-64
2021/11/03 06:01:56;;;;;;;;;6.50;4.00;;;;;23.28;37.40;99855.34;4973885;28;45527;-64
2021/11/03 06:04:21;;;;;;;;;4.25;4.25;;;;;23.29;37.31;99856.94;4973513;28;45420;-65
2021/11/03 06:06:46;;;;;;;;;4.50;3.50;;;;;23.32;37.70;99868.97;4972368;28;45522;-65
2021/11/03 06:09:12;;;;;;;;;5.00;5.00;;;;;23.30;37.88;99868.38;4971020;28;46573;-65
2021/11/03 06:11:40;;;;;;;;;6.00;5.00;;;;;23.32;38.01;99868.16;4972187;28;45501;-65
2021/11/03 06:14:07;;;;;;;;;6.25;4.00;;;;;23.33;37.65;99877.75;4972844;28;45574;-65
2021/11/03 06:16:32;;;;;;;;;5.00;4.00;;;;;23.29;37.72;99869.38;4974432;28;45331;-65
2021/11/03 06:18:58;;;;;;;;;5.00;5.00;;;;;23.28;37.92;99865.94;4970584;28;46351;-65
2021/11/03 06:21:24;;;;;;;;;4.25;4.25;;;;;23.32;37.73;99876.13;4972222;28;45365;-65
2021/11/03 06:23:49;;;;;;;;;4.75;4.75;;;;;23.26;37.26;99865.31;4972479;28;45328;-65
2021/11/03 06:26:17;;;;;;;;;5.75;4.00;;;;;23.32;37.89;99876.94;4970461;28;45548;-65
2021/11/03 06:28:42;;;;;;;;;4.25;3.75;;;;;23.32;37.97;99879.59;4974080;28;46840;-65
2021/11/03 06:31:08;;;;;;;;;3.00;3.00;;;;;23.31;37.89;99877.97;4972033;28;45537;-65
2021/11/03 06:33:34;;;;;;;;;4.00;3.50;;;;;23.30;37.35;99881.66;4972466;28;45421;-65
2021/11/03 06:36:02;;;;;;;;;5.75;4.50;;;;;23.29;37.40;99880.00;4972083;28;45657;-62
2021/11/03 06:38:28;;;;;;;;;4.25;4.25;;;;;23.34;37.59;99901.41;4972223;28;45496;-65
2021/11/03 06:40:54;;;;;;;;;4.25;4.00;;;;;23.31;37.27;99899.22;4973239;28;45231;-65
2021/11/03 06:43:19;;;;;;;;;3.00;3.00;;;;;23.31;37.43;99903.69;4972895;28;45454;-65
2021/11/03 06:45:45;;;;;;;;;3.50;3.50;;;;;23.28;37.76;99908.41;4972175;28;45485;-65
2021/11/03 06:48:10;;;;;;;;;4.00;4.00;;;;;23.32;37.18;99916.75;4970485;28;45988;-65
2021/11/03 06:50:38;;;;;;;;;5.25;3.25;;;;;23.27;37.63;99904.13;4972085;28;45405;-65
2021/11/03 06:53:07;;;;;;;;;4.00;4.00;;;;;23.31;37.51;99912.47;4972573;28;45355;-65
2021/11/03 06:55:32;;;;;;;;;3.50;3.50;;;;;23.32;37.29;99926.53;4971846;28;45384;-65
2021/11/03 06:57:58;;;;;;;;;5.00;5.00;;;;;23.32;37.16;99923.88;4971860;28;45615;-65
2021/11/03 07:00:28;;;;;;;;;5.00;3.00;;;;;23.30;37.29;99924.09;4971897;28;45478;-65
2021/11/03 07:02:54;;;;;;;;;4.75;4.00;;;;;23.29;37.25;99925.94;4972001;28;45450;-65
2021/11/03 07:05:20;;;;;;;;;5.25;4.75;;;;;23.27;37.53;99924.53;4971957;28;45463;-65
2021/11/03 07:07:45;;;;;;;;;3.75;3.75;;;;;23.26;37.74;99928.22;4969563;28;46107;-65
2021/11/03 07:10:19;;;;;;;;;4.50;4.50;;;;;23.29;37.15;99933.91;4971500;28;45427;-64
2021/11/03 07:12:44;;;;;;;;;4.50;4.50;;;;;23.30;37.17;99937.38;4971858;28;45402;-65
2021/11/03 07:15:09;;;;;;;;;3.00;3.00;;;;;23.29;37.55;99938.38;4971584;28;45389;-65
2021/11/03 07:17:35;;;;;;;;;3.75;3.75;;;;;23.28;37.45;99936.78;4971998;28;46056;-65
2021/11/03 07:20:00;;;;;;;;;4.00;4.00;;;;;23.26;37.61;99944.94;4972107;28;45296;-63
2021/11/03 07:22:26;;;;;;;;;5.75;5.00;;;;;23.24;37.23;99943.50;4973190;28;45314;-64
2021/11/03 07:24:53;;;;;;;;;3.50;2.75;;;;;23.27;37.17;99951.06;4971362;28;45473;-63
2021/11/03 07:27:19;;;;;;;;;4.25;4.00;;;;;23.26;37.44;99946.81;4969828;28;46620;-63
2021/11/03 07:29:44;;;;;;;;;4.75;3.50;;;;;23.32;37.58;99955.72;4990731;28;45252;-63
2021/11/03 07:32:09;;;;;;;;;7.75;5.00;;;;;23.32;37.90;99955.72;4971443;28;45212;-62
2021/11/03 07:34:35;;;;;;;;;4.00;4.00;;;;;23.44;37.41;99961.22;4973082;28;45571;-64
2021/11/03 07:37:00;;;;;;;;;8.00;5.00;;;;;23.51;37.83;99962.84;4970955;28;45616;-63
2021/11/03 07:39:25;;;;;;;;;5.75;4.00;;;;;23.63;37.21;99972.78;4968506;28;45459;-63
2021/11/03 07:41:51;;;;;;;;;4.25;4.25;;;;;23.70;37.21;99978.88;4971112;28;45464;-63
2021/11/03 07:44:17;;;;;;;;;4.00;4.00;;;;;23.87;37.26;99988.19;4969967;28;45266;-63
2021/11/03 07:46:43;;;;;;;;;4.00;4.00;;;;;23.98;36.79;99987.50;4972418;28;45277;-63
2021/11/03 07:49:08;;;;;;;;;6.00;5.00;;;;;24.11;36.77;100001.72;4971598;28;45645;-63
2021/11/03 07:51:34;;;;;;;;;3.00;3.00;;;;;24.24;36.58;100000.81;4971468;28;45470;-63
2021/11/03 07:53:59;;;;;;;;;5.00;5.00;;;;;24.32;36.38;99997.09;4971016;28;45511;-63
2021/11/03 07:56:28;;;;;;;;;5.25;4.00;;;;;24.38;36.71;100005.03;4970595;28;46250;-64
2021/11/03 07:58:54;;;;;;;;;3.50;3.50;;;;;24.39;36.15;100005.84;4972023;28;45364;-62
2021/11/03 08:01:20;;;;;;;;;5.25;4.75;;;;;24.46;36.58;100003.16;4968838;28;45626;-64
2021/11/03 08:03:46;;;;;;;;;3.00;3.00;;;;;24.50;36.13;100012.31;4968741;28;45483;-64
2021/11/03 08:06:12;;;;;;;;;6.25;5.75;;;;;24.51;36.13;100008.63;4968324;28;46659;-64
2021/11/03 08:08:43;;;;;;;;;4.00;4.00;;;;;24.55;36.03;100015.13;4970460;28;45458;-64
2021/11/03 08:11:11;;;;;;;;;5.25;3.50;;;;;24.51;36.22;100016.59;4970786;28;45530;-63
2021/11/03 08:13:37;;;;;;;;;6.25;4.75;;;;;24.54;36.17;100026.00;4972914;28;45594;-64
2021/11/03 08:16:04;;;;;;;;;4.75;4.00;;;;;24.52;35.76;100028.84;4968826;28;46635;-64
2021/11/03 08:18:33;;;;;;;;;3.00;3.00;;;;;24.49;36.13;100031.94;4970783;28;45516;-64
2021/11/03 08:20:59;;;;;;;;;5.25;4.25;;;;;24.47;36.20;100036.66;4970263;28;45398;-64
2021/11/03 08:23:25;;;;;;;;;4.50;4.50;;;;;24.40;35.96;100037.53;4971839;28;45333;-65
2021/11/03 08:25:52;;;;;;;;;4.50;4.50;;;;;24.39;36.08;100043.06;4975270;28;46490;-64
2021/11/03 08:28:17;;;;;;;;;5.00;5.00;;;;;24.35;36.09;100044.53;4974212;28;45405;-64
2021/11/03 08:30:47;;;;;;;;;6.75;5.00;;;;;24.31;36.09;100048.63;4973747;28;45504;-64
2021/11/03 08:33:20;;;;;;;;;6.00;4.25;;;;;24.29;35.97;100048.84;4973331;28;45346;-64
2021/11/03 08:35:51;;;;;;;;;4.50;4.00;;;;;24.27;36.42;100054.41;4972107;28;47106;-64
2021/11/03 08:38:17;;;;;;;;;3.75;3.00;;;;;24.25;36.14;100056.41;4972873;28;46043;-64
2021/11/03 08:40:44;;;;;;;;;5.00;5.00;;;;;24.23;36.43;100058.47;4975653;28;45435;-64
2021/11/03 08:43:12;;;;;;;;;6.00;4.25;;;;;24.18;36.16;100061.78;4973196;28;45265;-65
2021/11/03 08:45:38;;;;;;;;;4.00;4.00;;;;;24.17;36.00;100059.34;4971783;28;46696;-64
2021/11/03 08:48:04;;;;;;;;;6.75;4.00;;;;;24.13;36.33;100060.78;4973139;28;45620;-64
2021/11/03 08:50:32;;;;;;;;;5.00;5.00;;;;;24.15;36.45;100069.34;4973437;28;45554;-64
2021/11/03 08:52:58;;;;;;;;;4.50;4.50;;;;;24.13;36.52;100063.44;4973990;28;45446;-64
2021/11/03 08:55:25;;;;;;;;;4.00;4.00;;;;;24.11;36.41;100060.19;4972762;28;46524;-66
2021/11/03 08:57:50;;;;;;;;;3.75;3.75;;;;;24.10;36.64;100070.00;4973188;28;46560;-64
2021/11/03 09:00:22;;;;;;;;;3.25;3.25;;;;;24.08;36.44;100066.75;4973178;28;45483;-64
2021/11/03 09:02:53;;;;;;;;;8.00;6.00;;;;;24.07;36.78;100065.13;4972934;28;45526;-64
2021/11/03 09:05:18;;;;;;;;;5.75;4.00;;;;;24.04;36.53;100063.72;4957117;28;47174;-65
2021/11/03 09:07:44;;;;;;;;;5.00;3.75;;;;;24.02;36.81;100062.31;4974979;28;45274;-64
2021/11/03 09:10:12;;;;;;;;;5.00;5.00;;;;;24.04;36.69;100066.38;4973360;28;45482;-64
2021/11/03 09:12:38;;;;;;;;;6.25;5.00;;;;;24.03;36.13;100069.22;4972961;28;45635;-64
2021/11/03 09:15:04;;;;;;;;;4.00;4.00;;;;;24.03;36.72;100069.22;4972511;28;45477;-64
2021/11/03 09:17:30;;;;;;;;;6.50;5.00;;;;;24.00;36.34;100066.97;4972858;28;45403;-64
2021/11/03 09:19:55;;;;;;;;;4.00;3.25;;;;;23.99;36.46;100062.72;4974076;28;45501;-64
2021/11/03 09:22:21;;;;;;;;;4.00;4.00;;;;;23.98;36.78;100069.03;4973474;28;45535;-64
2021/11/03 09:24:47;;;;;;;;;7.00;5.00;;;;;24.00;36.52;100075.78;4971330;28;45951;-63
2021/11/03 09:27:14;;;;;;;;;4.00;4.00;;;;;23.95;36.43;100068.44;4972975;28;45478;-63
2021/11/03 09:29:43;;;;;;;;;4.25;4.25;;;;;23.90;37.05;100065.63;4973136;28;45292;-63
2021/11/03 09:32:11;;;;;;;;;4.75;4.00;;;;;23.98;36.45;100082.34;4973280;28;45500;-63
2021/11/03 09:34:37;;;;;;;;;5.25;4.00;;;;;23.97;37.02;100089.47;4972010;28;45365;-63
2021/11/03 09:37:04;;;;;;;;;6.50;5.50;;;;;24.00;36.47;100096.22;4972600;28;45242;-63
2021/11/03 09:39:30;;;;;;;;;6.50;5.75;;;;;23.96;37.04;100085.22;4973047;28;45337;-63
2021/11/03 09:41:55;;;;;;;;;7.00;5.75;;;;;23.95;37.24;100091.53;4971393;28;45379;-63
2021/11/03 09:44:28;;;;;;;;;6.25;5.00;;;;;24.01;36.88;100098.69;4970673;28;46068;-63
2021/11/03 09:47:16;;;;;;;;;4.00;4.00;;;;;23.96;37.09;100103.81;4973937;28;45296;-61
2021/11/03 09:49:48;;;;;;;;;7.25;5.50;;;;;23.97;37.23;100089.47;4973277;28;45579;-60
2021/11/03 09:52:16;;;;;;;;;5.00;5.00;;;;;24.00;37.03;100097.03;4972537;28;45657;-61
2021/11/03 09:54:46;;;;;;;;;5.00;5.00;;;;;24.00;36.99;100105.00;4972399;28;46401;-61
2021/11/03 09:57:19;;;;;;;;;7.75;6.00;;;;;23.99;36.65;100097.25;4972438;28;45497;-61
2021/11/03 10:00:41;;;;;;;;;7.75;6.75;;;;;23.99;37.31;100102.56;4972869;28;49647;-61
2021/11/03 10:03:53;;;;;;;;;5.00;5.00;;;;;23.94;37.03;100097.91;4921324;28;45515;-59
2021/11/03 10:06:52;;;;;;;;;5.00;5.00;;;;;23.92;37.16;100095.44;4924973;28;47217;-62
2021/11/03 10:09:18;;;;;;;;;4.25;4.25;;;;;23.98;37.20;100108.91;4941356;28;45407;-61
2021/11/03 10:11:49;;;;;;;;;7.00;7.00;;;;;23.97;36.80;100105.41;4933058;28;45652;-60
2021/11/03 10:14:14;;;;;;;;;8.00;8.00;;;;;23.90;37.24;100096.66;4933125;28;45559;-61
2021/11/03 10:16:45;;;;;;;;;6.50;6.50;;;;;23.93;37.01;100110.34;4918957;28;47254;-60
2021/11/03 10:19:21;;;;;;;;;6.00;6.00;;;;;23.95;37.15;100121.59;4931484;28;45373;-61
2021/11/03 10:21:53;;;;;;;;;9.25;5.75;;;;;23.95;37.23;100118.09;4932707;28;45314;-61
2021/11/03 10:24:20;;;;;;;;;4.75;4.75;;;;;23.94;36.72;100114.63;4932710;28;45534;-61
2021/11/03 10:26:54;;;;;;;;;8.25;6.50;;;;;23.90;37.42;100113.44;4932378;28;46563;-61
2021/11/03 10:29:28;;;;;;;;;6.00;6.00;;;;;23.92;36.78;100119.34;4932723;28;45777;-62
2021/11/03 10:31:59;;;;;;;;;5.25;5.25;;;;;23.92;37.25;100118.53;4932990;28;45404;-61
2021/11/03 10:34:34;;;;;;;;;7.00;7.00;;;;;23.92;37.06;100122.00;4920719;28;47846;-61
2021/11/03 10:37:11;;;;;;;;;8.50;7.25;;;;;23.93;36.85;100117.50;4938905;28;45596;-61
2021/11/03 10:39:53;;;;;;;;;7.00;6.00;;;;;23.92;37.24;100122.00;4959697;28;45427;-61
2021/11/03 10:42:23;;;;;;;;;4.25;4.25;;;;;23.93;37.42;100123.66;4972702;28;45368;-62
2021/11/03 10:45:09;;;;;;;;;8.00;6.75;;;;;23.94;37.11;100121.81;4972057;28;45350;-62
2021/11/03 10:47:34;;;;;;;;;6.75;6.00;;;;;23.93;37.33;100113.00;4957638;28;47046;-61
2021/11/03 10:50:23;;;;;;;;;8.50;7.25;;;;;23.93;37.54;100105.03;4972824;28;49304;-62
2021/11/03 10:52:55;;;;;;;;;6.00;6.00;;;;;23.95;37.16;100118.94;4970286;28;45502;-62
2021/11/03 10:55:24;;;;;;;;;9.75;7.00;;;;;23.94;37.50;100117.28;4973307;28;45334;-62
2021/11/03 10:57:57;;;;;;;;;8.75;6.00;;;;;23.95;37.33;100110.13;4970624;28;45401;-61
2021/11/03 11:00:34;;;;;;;;;6.50;5.75;;;;;23.95;37.59;100107.47;4969725;28;45333;-62
2021/11/03 11:03:11;;;;;;;;;5.25;5.25;;;;;23.95;37.26;100115.44;4971497;28;45640;-62
2021/11/03 11:05:43;;;;;;;;;8.00;7.00;;;;;23.94;37.08;100109.31;4971500;28;45316;-62
2021/11/03 11:08:19;;;;;;;;;7.00;7.00;;;;;23.95;37.36;100110.13;4971566;28;46994;-62
2021/11/03 11:10:52;;;;;;;;;6.00;6.00;;;;;23.94;37.23;100111.97;4973619;28;45445;-62
2021/11/03 11:13:26;;;;;;;;;6.25;6.00;;;;;23.94;37.61;100116.50;4972710;28;45422;-62
2021/11/03 11:16:15;;;;;;;;;5.25;5.25;;;;;23.93;37.15;100120.16;4970984;28;45605;-62
2021/11/03 11:18:57;;;;;;;;;7.25;7.00;;;;;23.88;37.73;100131.44;4971218;28;46467;-61
2021/11/03 11:21:45;;;;;;;;;9.50;7.25;;;;;23.91;37.51;100156.75;4969973;28;45225;-62
2021/11/03 11:24:22;;;;;;;;;6.75;5.00;;;;;23.90;37.36;100150.63;4971562;28;45451;-62
2021/11/03 11:27:14;;;;;;;;;6.50;6.00;;;;;23.90;37.49;100147.97;4971421;28;45479;-62
2021/11/03 11:29:50;;;;;;;;;5.25;5.25;;;;;23.82;37.60;100141.03;4958750;28;46615;-61
2021/11/03 11:32:27;;;;;;;;;8.00;5.00;;;;;23.88;37.19;100159.81;4971154;28;45408;-61
2021/11/03 11:35:19;;;;;;;;;6.00;5.50;;;;;23.87;37.04;100161.66;4969648;28;45288;-62
2021/11/03 11:38:24;;;;;;;;;8.75;5.50;;;;;23.87;37.09;100160.84;4973390;28;45448;-62